Time;durP1;ratioP1;P1;durP2;ratioP2;P2;SDS_P1;SDS_P2;PMS_P1;PMS_P2;Temp;Humidity;BMP_temperature;BMP_pressure;BME280_temperature;BME280_humidity;BME280_pressure;Samples;Min_cycle;Max_cycle;Signal;HPM_P1;HPM_P2
2021/09/23 00:01:26;;;;;;;;;;;;;;;9.75;94.24;99591.92;112238;1195;61152;-85
2021/09/23 00:03:58;;;;;;;;;;;;;;;9.72;94.29;99585.88;112075;1195;60979;-85
2021/09/23 00:06:24;;;;;;;;;;;;;;;9.71;94.43;99581.33;112204;1196;66071;-85
2021/09/23 00:08:52;;;;;;;;;;;;;;;9.73;94.47;99581.41;112277;1196;61056;-85
2021/09/23 00:11:18;;;;;;;;;;;;;;;9.74;94.51;99579.55;112243;1196;64174;-83
2021/09/23 00:13:45;;;;;;;;;;;;;;;9.75;94.49;99576.48;112213;1194;61056;-85
2021/09/23 00:16:12;;;;;;;;;;;;;;;9.75;94.50;99570.46;112334;1195;61178;-86
2021/09/23 00:18:38;;;;;;;;;;;;;;;9.74;94.52;99566.09;112373;1196;64693;-84
2021/09/23 00:21:06;;;;;;;;;;;;;;;9.72;94.55;99563.52;112267;1196;60976;-86
2021/09/23 00:23:33;;;;;;;;;;;;;;;9.70;94.62;99563.11;112345;1195;64799;-85
2021/09/23 00:25:59;;;;;;;;;;;;;;;9.71;94.78;99565.75;112308;1195;61084;-85
2021/09/23 00:28:26;;;;;;;;;;;;;;;9.72;94.86;99566.04;112278;1196;60947;-86
2021/09/23 00:30:52;;;;;;;;;;;;;;;9.74;94.91;99558.64;112204;1195;60969;-86
2021/09/23 00:33:19;;;;;;;;;;;;;;;9.73;94.98;99550.55;112231;1196;61154;-85
2021/09/23 00:35:45;;;;;;;;;;;;;;;9.72;95.04;99547.60;112272;1195;61079;-83
2021/09/23 00:38:12;;;;;;;;;;;;;;;9.72;95.04;99551.86;112004;1195;61040;-85
2021/09/23 00:40:38;;;;;;;;;;;;;;;9.74;95.10;99550.46;112014;1196;61087;-86
2021/09/23 00:43:05;;;;;;;;;;;;;;;9.74;95.08;99548.73;112220;1196;60937;-84
2021/09/23 00:45:32;;;;;;;;;;;;;;;9.69;95.00;99540.64;112292;1195;60962;-84
2021/09/23 00:47:58;;;;;;;;;;;;;;;9.66;95.11;99539.89;112252;1196;63666;-84
2021/09/23 00:50:25;;;;;;;;;;;;;;;9.66;95.20;99542.20;112229;1196;61417;-84
2021/09/23 00:52:52;;;;;;;;;;;;;;;9.68;95.31;99542.09;112220;1195;61023;-84
2021/09/23 00:55:18;;;;;;;;;;;;;;;9.72;95.36;99540.45;112222;1195;66161;-84
2021/09/23 00:57:45;;;;;;;;;;;;;;;9.74;95.27;99540.91;112269;1196;60947;-84
2021/09/23 01:00:13;;;;;;;;;;;;;;;9.72;95.16;99538.91;112255;1195;65425;-85
2021/09/23 01:02:40;;;;;;;;;;;;;;;9.67;95.27;99534.67;112254;1195;60960;-84
2021/09/23 01:05:08;;;;;;;;;;;;;;;9.62;95.31;99532.66;112281;1196;61071;-84
2021/09/23 01:07:34;;;;;;;;;;;;;;;9.55;95.24;99536.96;112189;1195;65930;-85
2021/09/23 01:10:03;;;;;;;;;;;;;;;9.48;95.38;99537.18;112269;1195;61130;-86
2021/09/23 01:12:29;;;;;;;;;;;;;;;9.43;95.57;99535.64;112254;1196;63837;-84
2021/09/23 01:14:56;;;;;;;;;;;;;;;9.37;95.56;99530.64;112055;1196;61045;-84
2021/09/23 01:17:22;;;;;;;;;;;;;;;9.32;95.63;99528.25;112237;1195;61022;-84
2021/09/23 01:19:49;;;;;;;;;;;;;;;9.26;95.74;99517.56;112004;1196;64697;-83
2021/09/23 01:22:16;;;;;;;;;;;;;;;9.22;95.91;99516.15;112235;1195;61068;-84
2021/09/23 01:24:43;;;;;;;;;;;;;;;9.18;96.01;99513.04;112237;1196;63812;-83
2021/09/23 01:27:10;;;;;;;;;;;;;;;9.14;96.27;99519.14;112217;1195;61051;-83
2021/09/23 01:29:37;;;;;;;;;;;;;;;9.10;96.42;99519.66;112003;1196;61062;-84
2021/09/23 01:32:05;;;;;;;;;;;;;;;9.10;96.66;99516.99;112242;1196;66082;-87
2021/09/23 01:34:33;;;;;;;;;;;;;;;9.11;96.65;99514.67;112264;1196;61026;-84
2021/09/23 01:36:59;;;;;;;;;;;;;;;9.07;96.49;99515.95;112276;1196;62790;-84
2021/09/23 01:39:27;;;;;;;;;;;;;;;9.04;96.72;99513.63;112018;1196;61100;-84
2021/09/23 01:41:54;;;;;;;;;;;;;;;9.04;96.84;99515.22;112250;1195;61059;-84
2021/09/23 01:44:20;;;;;;;;;;;;;;;9.04;96.87;99512.04;112264;1196;65697;-84
2021/09/23 01:46:47;;;;;;;;;;;;;;;9.00;96.79;99503.20;112246;1195;61059;-84
2021/09/23 01:49:14;;;;;;;;;;;;;;;8.94;96.76;99500.46;112258;1195;62915;-84
2021/09/23 01:51:40;;;;;;;;;;;;;;;8.90;96.86;99497.66;112223;1194;61155;-84
2021/09/23 01:54:07;;;;;;;;;;;;;;;8.83;96.89;99498.37;112250;1196;60966;-84
2021/09/23 01:56:33;;;;;;;;;;;;;;;8.78;97.08;99495.25;112211;1196;64651;-84
2021/09/23 01:59:00;;;;;;;;;;;;;;;8.78;97.37;99496.35;112224;1195;61036;-84
2021/09/23 02:01:26;;;;;;;;;;;;;;;8.77;97.41;99490.88;112200;1195;61033;-84
2021/09/23 02:03:53;;;;;;;;;;;;;;;8.76;97.42;99483.48;112232;1196;61636;-84
2021/09/23 02:06:19;;;;;;;;;;;;;;;8.75;97.51;99474.70;112267;1196;61010;-84
2021/09/23 02:08:46;;;;;;;;;;;;;;;8.77;97.69;99471.02;111998;1195;61042;-84
2021/09/23 02:11:12;;;;;;;;;;;;;;;8.79;97.68;99464.74;112249;1194;61035;-84
2021/09/23 02:13:39;;;;;;;;;;;;;;;8.82;97.73;99464.45;112217;1196;62628;-84
2021/09/23 02:16:06;;;;;;;;;;;;;;;8.86;97.82;99459.28;112241;1196;61138;-84
2021/09/23 02:18:32;;;;;;;;;;;;;;;8.89;97.89;99457.85;112246;1195;61022;-84
2021/09/23 02:20:59;;;;;;;;;;;;;;;8.93;97.95;99461.19;112096;1196;61193;-84
2021/09/23 02:23:25;;;;;;;;;;;;;;;8.99;97.96;99459.61;112228;1196;61158;-84
2021/09/23 02:25:52;;;;;;;;;;;;;;;9.05;97.88;99457.35;112231;1195;61053;-84
2021/09/23 02:28:18;;;;;;;;;;;;;;;9.11;98.01;99454.21;112262;1196;60991;-84
2021/09/23 02:30:45;;;;;;;;;;;;;;;9.17;98.05;99447.88;112244;1195;61082;-84
2021/09/23 02:33:11;;;;;;;;;;;;;;;9.19;97.91;99443.66;112255;1197;61036;-84
2021/09/23 02:35:38;;;;;;;;;;;;;;;9.19;97.77;99440.46;112104;1196;61068;-84
2021/09/23 02:38:04;;;;;;;;;;;;;;;9.17;97.71;99440.60;112227;1195;61058;-84
2021/09/23 02:40:31;;;;;;;;;;;;;;;9.15;97.66;99441.21;112213;1196;61045;-84
2021/09/23 02:42:58;;;;;;;;;;;;;;;9.12;97.70;99443.36;112245;1196;61036;-84
2021/09/23 02:45:24;;;;;;;;;;;;;;;9.08;97.72;99439.98;112243;1194;66132;-84
2021/09/23 02:47:51;;;;;;;;;;;;;;;9.06;97.66;99431.95;112225;1196;61073;-84
2021/09/23 02:50:17;;;;;;;;;;;;;;;9.03;97.85;99433.00;112229;1196;63883;-84
2021/09/23 02:52:44;;;;;;;;;;;;;;;9.04;97.90;99431.23;112204;1195;61039;-84
2021/09/23 02:55:10;;;;;;;;;;;;;;;9.04;97.95;99440.44;112224;1194;60940;-84
2021/09/23 02:57:37;;;;;;;;;;;;;;;9.03;97.95;99440.30;112261;1195;64374;-85
2021/09/23 03:00:04;;;;;;;;;;;;;;;9.06;98.18;99433.73;112198;1194;60991;-85
2021/09/23 03:02:31;;;;;;;;;;;;;;;9.10;98.15;99430.48;112139;1196;64031;-86
2021/09/23 03:04:57;;;;;;;;;;;;;;;9.10;98.06;99431.55;112225;1195;61020;-85
2021/09/23 03:07:24;;;;;;;;;;;;;;;9.11;98.12;99430.29;112259;1195;61046;-85
2021/09/23 03:09:51;;;;;;;;;;;;;;;9.10;97.94;99429.46;112282;1195;66000;-86
2021/09/23 03:12:19;;;;;;;;;;;;;;;9.10;98.05;99423.94;112472;1196;61023;-84
2021/09/23 03:14:46;;;;;;;;;;;;;;;9.13;98.17;99420.40;112284;1196;64012;-88
2021/09/23 03:17:13;;;;;;;;;;;;;;;9.14;97.97;99416.81;112375;1195;60972;-85
2021/09/23 03:19:39;;;;;;;;;;;;;;;9.13;97.97;99421.66;112385;1195;61062;-86
2021/09/23 03:22:06;;;;;;;;;;;;;;;9.13;98.06;99426.27;112288;1195;61049;-86
2021/09/23 03:24:33;;;;;;;;;;;;;;;9.14;98.10;99427.27;111949;1195;60980;-86
2021/09/23 03:26:59;;;;;;;;;;;;;;;9.16;98.16;99426.25;112217;1195;61106;-86
2021/09/23 03:29:26;;;;;;;;;;;;;;;9.20;98.16;99429.23;112208;1194;61058;-84
2021/09/23 03:31:52;;;;;;;;;;;;;;;9.22;98.24;99426.31;112212;1194;61046;-85
2021/09/23 03:34:19;;;;;;;;;;;;;;;9.23;98.18;99422.17;112243;1196;61068;-85
2021/09/23 03:36:45;;;;;;;;;;;;;;;9.25;98.19;99419.61;112238;1196;61099;-85
2021/09/23 03:39:13;;;;;;;;;;;;;;;9.26;98.15;99420.27;112208;1196;61008;-85
2021/09/23 03:41:40;;;;;;;;;;;;;;;9.28;98.24;99419.78;112240;1196;61045;-85
2021/09/23 03:44:06;;;;;;;;;;;;;;;9.30;98.28;99419.15;111995;1195;61020;-85
2021/09/23 03:46:33;;;;;;;;;;;;;;;9.32;98.30;99417.44;112213;1196;64503;-86
2021/09/23 03:49:00;;;;;;;;;;;;;;;9.33;98.26;99415.08;112251;1195;61037;-86
2021/09/23 03:51:27;;;;;;;;;;;;;;;9.36;98.33;99415.27;112238;1197;63669;-85
2021/09/23 03:53:53;;;;;;;;;;;;;;;9.39;98.37;99414.90;112232;1196;61065;-84
2021/09/23 03:56:20;;;;;;;;;;;;;;;9.41;98.26;99413.74;112244;1196;60976;-84
2021/09/23 03:58:47;;;;;;;;;;;;;;;9.43;98.30;99414.32;112259;1195;66007;-85
2021/09/23 04:01:14;;;;;;;;;;;;;;;9.47;98.31;99411.48;112246;1196;60956;-85
2021/09/23 04:03:40;;;;;;;;;;;;;;;9.50;98.33;99408.63;112222;1195;64023;-85
2021/09/23 04:06:07;;;;;;;;;;;;;;;9.52;98.27;99408.89;112261;1195;61059;-85
2021/09/23 04:08:33;;;;;;;;;;;;;;;9.52;98.24;99406.91;112292;1195;61648;-85
2021/09/23 04:11:00;;;;;;;;;;;;;;;9.53;98.19;99402.78;112221;1196;65834;-86
2021/09/23 04:13:26;;;;;;;;;;;;;;;9.56;98.27;99404.27;111946;1196;61019;-86
2021/09/23 04:15:53;;;;;;;;;;;;;;;9.57;98.24;99403.11;112191;1196;61055;-85
2021/09/23 04:18:20;;;;;;;;;;;;;;;9.59;98.23;99402.80;112218;1196;61347;-85
2021/09/23 04:20:47;;;;;;;;;;;;;;;9.59;98.23;99402.60;112235;1196;61055;-84
2021/09/23 04:23:14;;;;;;;;;;;;;;;9.60;98.20;99399.71;112251;1196;66021;-86
2021/09/23 04:25:41;;;;;;;;;;;;;;;9.61;98.28;99398.63;112329;1196;61046;-85
2021/09/23 04:28:07;;;;;;;;;;;;;;;9.61;98.12;99393.09;112228;1195;62723;-85
2021/09/23 04:30:35;;;;;;;;;;;;;;;9.62;98.06;99390.36;112228;1195;61059;-85
2021/09/23 04:33:01;;;;;;;;;;;;;;;9.65;98.10;99389.34;112258;1196;61010;-85
2021/09/23 04:35:28;;;;;;;;;;;;;;;9.66;98.05;99384.69;112292;1194;66988;-86
2021/09/23 04:37:54;;;;;;;;;;;;;;;9.66;98.00;99382.88;112221;1196;61059;-85
2021/09/23 04:40:21;;;;;;;;;;;;;;;9.67;98.02;99383.52;112210;1196;61029;-85
2021/09/23 04:42:47;;;;;;;;;;;;;;;9.69;97.94;99382.73;112197;1195;61091;-84
2021/09/23 04:45:14;;;;;;;;;;;;;;;9.71;97.78;99386.51;112209;1195;61027;-84
2021/09/23 04:47:40;;;;;;;;;;;;;;;9.72;97.69;99390.55;112264;1197;61010;-84
2021/09/23 04:50:07;;;;;;;;;;;;;;;9.74;97.78;99390.08;112271;1196;61071;-84
2021/09/23 04:52:33;;;;;;;;;;;;;;;9.77;97.70;99386.20;112239;1195;64013;-85
2021/09/23 04:55:00;;;;;;;;;;;;;;;9.78;97.70;99390.73;112195;1195;61068;-85
2021/09/23 04:57:26;;;;;;;;;;;;;;;9.80;97.69;99387.94;112318;1195;61033;-85
2021/09/23 04:59:53;;;;;;;;;;;;;;;9.84;97.50;99379.91;112238;1195;64634;-85
2021/09/23 05:02:19;;;;;;;;;;;;;;;9.89;97.37;99376.61;112260;1196;61000;-85
2021/09/23 05:04:47;;;;;;;;;;;;;;;9.93;97.21;99368.95;112236;1196;61055;-85
2021/09/23 05:07:13;;;;;;;;;;;;;;;9.98;97.08;99364.70;112227;1196;61039;-85
2021/09/23 05:09:40;;;;;;;;;;;;;;;10.05;96.98;99363.63;112266;1196;61139;-85
2021/09/23 05:12:07;;;;;;;;;;;;;;;10.12;96.77;99364.77;112227;1196;66971;-85
2021/09/23 05:14:33;;;;;;;;;;;;;;;10.18;96.43;99367.27;112261;1195;61034;-85
2021/09/23 05:17:00;;;;;;;;;;;;;;;10.23;96.24;99367.70;112255;1195;61033;-85
2021/09/23 05:19:26;;;;;;;;;;;;;;;10.30;96.06;99362.69;112057;1197;61206;-85
2021/09/23 05:21:53;;;;;;;;;;;;;;;10.38;95.86;99358.83;112271;1195;61515;-84
2021/09/23 05:24:19;;;;;;;;;;;;;;;10.44;95.53;99357.76;111998;1195;66129;-85
2021/09/23 05:26:46;;;;;;;;;;;;;;;10.49;95.27;99356.73;112229;1196;61055;-85
2021/09/23 05:29:12;;;;;;;;;;;;;;;10.52;95.08;99358.52;112231;1197;62648;-85
2021/09/23 05:31:39;;;;;;;;;;;;;;;10.55;94.96;99354.45;112213;1195;61155;-84
2021/09/23 05:34:05;;;;;;;;;;;;;;;10.55;94.88;99363.64;112213;1195;61404;-85
2021/09/23 05:36:32;;;;;;;;;;;;;;;10.54;94.64;99368.16;112216;1195;64853;-85
2021/09/23 05:38:59;;;;;;;;;;;;;;;10.54;94.64;99373.27;112226;1196;61043;-84
2021/09/23 05:41:26;;;;;;;;;;;;;;;10.61;94.39;99372.38;112220;1196;64090;-84
2021/09/23 05:43:53;;;;;;;;;;;;;;;10.81;94.13;99370.95;112228;1195;61059;-84
2021/09/23 05:46:19;;;;;;;;;;;;;;;11.13;93.93;99372.48;112232;1196;61030;-84
2021/09/23 05:48:46;;;;;;;;;;;;;;;11.42;93.07;99367.64;112240;1195;61007;-84
2021/09/23 05:51:12;;;;;;;;;;;;;;;11.61;92.35;99363.05;112258;1195;61177;-85
2021/09/23 05:53:39;;;;;;;;;;;;;;;11.79;91.89;99359.92;112215;1195;61046;-85
2021/09/23 05:56:05;;;;;;;;;;;;;;;12.03;91.61;99356.94;112229;1196;61065;-86
2021/09/23 05:58:32;;;;;;;;;;;;;;;12.26;90.87;99351.93;112229;1195;61030;-85
2021/09/23 06:00:58;;;;;;;;;;;;;;;12.35;90.38;99348.12;112289;1195;61165;-85
2021/09/23 06:03:25;;;;;;;;;;;;;;;12.40;90.14;99344.75;112272;1195;60970;-86
2021/09/23 06:05:51;;;;;;;;;;;;;;;12.46;89.77;99339.16;112051;1196;61092;-84
2021/09/23 06:08:21;;;;;;;;;;;;;;;12.52;89.71;99341.63;112234;1195;61045;-85
2021/09/23 06:10:47;;;;;;;;;;;;;;;12.56;89.31;99343.34;112243;1196;61090;-88
2021/09/23 06:13:14;;;;;;;;;;;;;;;12.59;89.18;99336.02;112455;1196;61055;-87
2021/09/23 06:15:41;;;;;;;;;;;;;;;12.69;89.03;99335.65;112311;1195;61027;-86
2021/09/23 06:18:07;;;;;;;;;;;;;;;12.73;88.83;99328.39;112198;1195;64037;-86
2021/09/23 06:20:34;;;;;;;;;;;;;;;12.73;88.75;99328.02;112259;1196;61031;-88
2021/09/23 06:23:00;;;;;;;;;;;;;;;12.69;88.77;99328.65;112241;1194;61058;-86
2021/09/23 06:25:27;;;;;;;;;;;;;;;12.68;88.54;99330.02;112235;1196;60946;-85
2021/09/23 06:27:53;;;;;;;;;;;;;;;12.63;88.29;99331.77;112250;1195;60930;-85
2021/09/23 06:30:20;;;;;;;;;;;;;;;12.64;88.39;99328.16;112194;1195;61052;-85
2021/09/23 06:32:46;;;;;;;;;;;;;;;12.66;88.39;99323.02;112254;1195;61055;-85
2021/09/23 06:35:13;;;;;;;;;;;;;;;12.70;88.69;99326.64;112275;1194;61138;-86
2021/09/23 06:37:39;;;;;;;;;;;;;;;12.80;88.45;99325.27;112230;1196;61023;-84
2021/09/23 06:40:07;;;;;;;;;;;;;;;12.90;87.91;99321.33;112256;1196;61109;-84
2021/09/23 06:42:33;;;;;;;;;;;;;;;12.99;87.77;99322.42;112252;1196;62421;-87
2021/09/23 06:45:00;;;;;;;;;;;;;;;13.03;87.49;99324.48;112220;1195;61020;-85
2021/09/23 06:47:26;;;;;;;;;;;;;;;13.02;87.74;99324.39;112244;1195;60978;-85
2021/09/23 06:49:54;;;;;;;;;;;;;;;13.01;87.05;99321.08;112207;1196;60983;-85
2021/09/23 06:52:21;;;;;;;;;;;;;;;12.96;86.91;99319.80;112296;1195;60992;-84
2021/09/23 06:54:48;;;;;;;;;;;;;;;12.94;86.58;99317.94;112236;1195;62631;-84
2021/09/23 06:57:14;;;;;;;;;;;;;;;12.96;86.99;99315.00;112293;1196;61067;-85
2021/09/23 06:59:41;;;;;;;;;;;;;;;13.02;87.31;99313.17;112200;1195;60994;-85
2021/09/23 07:02:07;;;;;;;;;;;;;;;13.04;86.89;99310.47;112242;1197;61015;-85
2021/09/23 07:04:34;;;;;;;;;;;;;;;13.06;86.81;99308.01;112216;1196;61065;-84
2021/09/23 07:07:01;;;;;;;;;;;;;;;13.09;86.72;99301.37;112219;1195;61056;-85
2021/09/23 07:09:27;;;;;;;;;;;;;;;13.14;86.47;99302.61;112282;1195;61072;-85
2021/09/23 07:11:55;;;;;;;;;;;;;;;13.17;86.27;99304.19;112270;1196;61023;-85
2021/09/23 07:14:22;;;;;;;;;;;;;;;13.21;86.22;99304.45;112176;1195;64709;-85
2021/09/23 07:16:49;;;;;;;;;;;;;;;13.25;86.12;99304.34;112167;1195;61075;-85
2021/09/23 07:19:15;;;;;;;;;;;;;;;13.30;85.56;99298.48;112233;1196;64002;-85
2021/09/23 07:21:42;;;;;;;;;;;;;;;13.35;85.65;99293.60;112249;1196;61154;-85
2021/09/23 07:24:08;;;;;;;;;;;;;;;13.39;85.54;99290.84;112244;1195;61085;-84
2021/09/23 07:26:35;;;;;;;;;;;;;;;13.43;85.56;99282.33;112229;1195;61033;-86
2021/09/23 07:29:01;;;;;;;;;;;;;;;13.49;85.07;99274.04;112191;1195;60942;-85
2021/09/23 07:31:28;;;;;;;;;;;;;;;13.52;84.61;99268.10;112281;1194;61026;-87
2021/09/23 07:33:54;;;;;;;;;;;;;;;13.55;84.21;99265.23;112245;1197;61008;-85
2021/09/23 07:36:21;;;;;;;;;;;;;;;13.54;83.90;99262.20;112279;1196;61090;-86
2021/09/23 07:38:48;;;;;;;;;;;;;;;13.58;83.91;99266.18;112240;1197;64464;-85
2021/09/23 07:41:14;;;;;;;;;;;;;;;13.68;83.92;99268.20;111992;1195;61175;-85
2021/09/23 07:43:41;;;;;;;;;;;;;;;13.82;84.13;99267.84;112162;1195;63709;-87
2021/09/23 07:46:07;;;;;;;;;;;;;;;14.00;83.92;99272.52;111905;1195;61037;-88
2021/09/23 07:48:34;;;;;;;;;;;;;;;14.15;83.30;99267.41;112287;1195;60940;-85
2021/09/23 07:51:00;;;;;;;;;;;;;;;14.29;82.88;99268.83;112291;1195;61068;-86
2021/09/23 07:53:28;;;;;;;;;;;;;;;14.46;82.40;99268.23;112184;1196;61103;-86
2021/09/23 07:55:54;;;;;;;;;;;;;;;14.62;81.90;99267.59;112200;1196;62717;-86
2021/09/23 07:58:21;;;;;;;;;;;;;;;14.80;81.35;99268.10;112235;1195;61072;-85
2021/09/23 08:00:47;;;;;;;;;;;;;;;15.08;81.10;99272.09;112211;1196;61020;-86
2021/09/23 08:03:14;;;;;;;;;;;;;;;15.35;80.52;99271.84;112201;1196;61020;-86
2021/09/23 08:05:40;;;;;;;;;;;;;;;15.53;80.33;99268.07;112121;1196;61036;-86
2021/09/23 08:08:09;;;;;;;;;;;;;;;15.75;80.45;99266.00;111865;1196;61055;-86
2021/09/23 08:10:36;;;;;;;;;;;;;;;16.00;79.25;99260.55;112262;1195;61004;-86
2021/09/23 08:13:03;;;;;;;;;;;;;;;16.08;77.71;99260.56;112263;1196;61009;-86
2021/09/23 08:15:30;;;;;;;;;;;;;;;16.11;77.79;99259.98;112213;1195;67500;-86
2021/09/23 08:17:57;;;;;;;;;;;;;;;16.05;77.10;99258.11;112250;1196;60997;-86
2021/09/23 08:20:24;;;;;;;;;;;;;;;15.92;77.41;99256.33;111941;1195;64065;-86
2021/09/23 08:22:50;;;;;;;;;;;;;;;15.85;77.50;99258.56;111899;1195;61093;-86
2021/09/23 08:25:17;;;;;;;;;;;;;;;15.86;77.03;99252.80;112247;1195;61446;-85
2021/09/23 08:27:43;;;;;;;;;;;;;;;15.89;77.11;99250.90;112222;1194;61378;-86
2021/09/23 08:30:10;;;;;;;;;;;;;;;16.00;77.37;99248.34;112313;1195;61091;-86
2021/09/23 08:32:36;;;;;;;;;;;;;;;16.14;76.72;99245.20;112271;1195;63680;-87
2021/09/23 08:35:06;;;;;;;;;;;;;;;16.26;76.33;99240.75;112269;1195;60950;-87
2021/09/23 08:37:33;;;;;;;;;;;;;;;16.44;76.66;99238.66;112259;1196;61041;-87
2021/09/23 08:40:00;;;;;;;;;;;;;;;16.65;76.10;99238.98;112257;1195;64678;-86
2021/09/23 08:42:27;;;;;;;;;;;;;;;16.81;75.74;99238.82;112267;1196;61081;-87
2021/09/23 08:44:57;;;;;;;;;;;;;;;16.87;75.79;99236.11;112277;1196;64067;-87
2021/09/23 08:47:23;;;;;;;;;;;;;;;16.83;75.60;99236.10;112223;1196;61062;-88
2021/09/23 08:49:50;;;;;;;;;;;;;;;16.81;75.21;99237.01;112256;1196;61183;-87
2021/09/23 08:52:17;;;;;;;;;;;;;;;16.78;74.96;99234.91;112272;1196;64653;-87
2021/09/23 08:54:43;;;;;;;;;;;;;;;16.80;75.06;99234.27;111992;1195;61120;-88
2021/09/23 08:57:10;;;;;;;;;;;;;;;16.84;73.69;99228.16;112198;1195;64018;-88
2021/09/23 09:02:28;;;;;;;;;;;;;;;17.07;73.32;99227.17;112841;1195;61083;-87
2021/09/23 09:04:56;;;;;;;;;;;;;;;17.06;72.26;99227.97;112741;1195;64677;-87
2021/09/23 09:07:28;;;;;;;;;;;;;;;17.00;72.93;99232.98;112476;1196;61094;-86
2021/09/23 09:10:06;;;;;;;;;;;;;;;16.96;72.65;99230.99;113072;1196;62806;-86
2021/09/23 09:12:32;;;;;;;;;;;;;;;16.83;72.70;99229.88;112473;1195;60992;-86
2021/09/23 09:14:59;;;;;;;;;;;;;;;16.70;73.00;99228.77;112286;1195;61062;-88
2021/09/23 09:17:27;;;;;;;;;;;;;;;16.60;72.79;99229.48;112260;1195;64417;-87
2021/09/23 09:20:02;;;;;;;;;;;;;;;16.54;73.18;99222.69;112263;1195;61023;-86
2021/09/23 09:22:35;;;;;;;;;;;;;;;16.56;73.31;99221.30;112262;1195;65344;-86
2021/09/23 09:25:05;;;;;;;;;;;;;;;16.76;73.36;99215.54;112266;1195;61033;-86
2021/09/23 09:27:32;;;;;;;;;;;;;;;17.07;73.18;99216.77;112261;1196;61087;-87
2021/09/23 09:30:08;;;;;;;;;;;;;;;17.36;73.00;99213.69;112283;1195;61027;-88
2021/09/23 09:32:44;;;;;;;;;;;;;;;17.66;72.57;99205.05;112277;1196;61014;-88
2021/09/23 09:35:13;;;;;;;;;;;;;;;17.90;71.82;99207.30;112237;1196;64038;-88
2021/09/23 09:37:41;;;;;;;;;;;;;;;18.12;72.10;99207.26;112279;1196;61178;-87
2021/09/23 09:40:10;;;;;;;;;;;;;;;18.35;71.47;99203.77;112251;1195;61030;-87
2021/09/23 09:42:39;;;;;;;;;;;;;;;18.52;71.21;99200.90;112236;1195;66682;-87
2021/09/23 09:45:06;;;;;;;;;;;;;;;18.69;71.36;99193.67;112282;1195;61051;-87
2021/09/23 09:47:35;;;;;;;;;;;;;;;18.74;69.73;99196.64;112249;1196;62331;-87
2021/09/23 09:50:12;;;;;;;;;;;;;;;18.78;69.97;99195.48;112282;1196;61126;-86
2021/09/23 09:52:39;;;;;;;;;;;;;;;18.78;67.97;99197.92;112278;1195;61154;-87
2021/09/23 09:55:08;;;;;;;;;;;;;;;18.54;67.89;99194.41;111958;1195;66121;-87
2021/09/23 09:57:43;;;;;;;;;;;;;;;18.28;68.46;99190.05;112264;1195;60984;-86
2021/09/23 10:00:10;;;;;;;;;;;;;;;18.10;68.74;99184.98;112300;1195;62678;-86
2021/09/23 10:02:36;;;;;;;;;;;;;;;18.00;69.20;99178.86;112208;1196;61055;-87
2021/09/23 10:05:03;;;;;;;;;;;;;;;18.00;69.39;99170.29;111937;1195;61826;-88
2021/09/23 10:07:32;;;;;;;;;;;;;;;17.94;69.11;99171.70;112269;1196;64671;-88
2021/09/23 10:10:00;;;;;;;;;;;;;;;17.78;69.07;99168.38;112222;1195;60953;-86
2021/09/23 10:12:27;;;;;;;;;;;;;;;17.66;69.30;99163.55;111984;1196;62788;-87
2021/09/23 10:14:53;;;;;;;;;;;;;;;17.64;69.37;99159.95;112251;1195;61042;-87
2021/09/23 10:17:21;;;;;;;;;;;;;;;17.70;69.12;99149.45;112000;1196;61064;-87
2021/09/23 10:19:48;;;;;;;;;;;;;;;17.83;69.32;99145.08;112285;1196;66040;-84
2021/09/23 10:22:15;;;;;;;;;;;;;;;17.99;69.67;99141.63;112274;1196;61046;-85
2021/09/23 10:24:43;;;;;;;;;;;;;;;18.07;69.54;99141.04;112228;1196;60990;-85
2021/09/23 10:29:57;;;;;;;;;;;;;;;18.01;69.31;99132.05;112243;1195;61058;-84
2021/09/23 10:32:25;;;;;;;;;;;;;;;17.88;69.01;99125.90;112241;1196;64670;-85
2021/09/23 10:34:52;;;;;;;;;;;;;;;17.76;69.46;99117.66;112271;1194;60974;-85
2021/09/23 10:37:19;;;;;;;;;;;;;;;17.67;69.38;99119.98;112288;1195;62618;-85
2021/09/23 10:39:45;;;;;;;;;;;;;;;17.63;69.71;99124.53;112302;1196;61200;-85
2021/09/23 10:42:20;;;;;;;;;;;;;;;17.64;69.78;99120.80;112264;1196;61051;-85
2021/09/23 10:44:51;;;;;;;;;;;;;;;17.71;69.64;99117.05;112245;1195;66190;-86
2021/09/23 10:47:34;;;;;;;;;;;;;;;17.80;69.69;99109.59;112244;1195;61031;-86
2021/09/23 10:50:04;;;;;;;;;;;;;;;17.87;69.50;99109.36;111988;1196;65104;-86
2021/09/23 10:52:34;;;;;;;;;;;;;;;17.87;69.04;99107.31;112232;1196;60966;-86
2021/09/23 10:55:01;;;;;;;;;;;;;;;17.85;68.91;99105.73;112276;1195;61038;-86
2021/09/23 10:57:28;;;;;;;;;;;;;;;17.83;68.45;99100.69;112262;1196;65669;-86
2021/09/23 10:59:55;;;;;;;;;;;;;;;17.86;68.03;99088.76;112288;1196;61048;-86
2021/09/23 11:02:26;;;;;;;;;;;;;;;17.91;68.60;99078.32;112285;1197;64679;-86
2021/09/23 11:04:54;;;;;;;;;;;;;;;17.99;68.68;99072.37;112199;1196;61058;-85
2021/09/23 11:07:21;;;;;;;;;;;;;;;18.04;68.46;99072.43;112321;1196;61058;-87
2021/09/23 11:10:07;;;;;;;;;;;;;;;18.08;67.95;99071.50;112283;1195;64373;-87
2021/09/23 11:12:34;;;;;;;;;;;;;;;18.16;67.84;99079.31;112277;1195;61081;-87
2021/09/23 11:15:01;;;;;;;;;;;;;;;18.32;68.06;99075.30;111991;1196;63002;-87
2021/09/23 11:17:28;;;;;;;;;;;;;;;18.46;67.82;99075.67;112242;1195;61090;-87
2021/09/23 11:19:57;;;;;;;;;;;;;;;18.54;66.96;99074.89;112276;1195;60946;-85
2021/09/23 11:22:35;;;;;;;;;;;;;;;18.59;67.27;99062.87;112337;1196;64435;-85
2021/09/23 11:25:04;;;;;;;;;;;;;;;18.67;67.06;99052.38;112278;1195;61084;-85
2021/09/23 11:27:31;;;;;;;;;;;;;;;18.64;66.26;99041.32;112289;1195;73818;-86
2021/09/23 11:29:58;;;;;;;;;;;;;;;18.58;66.75;99036.77;112026;1196;61059;-85
2021/09/23 11:32:24;;;;;;;;;;;;;;;18.57;67.33;99036.86;112240;1195;61017;-85
2021/09/23 11:35:00;;;;;;;;;;;;;;;18.63;67.14;99036.80;112280;1197;67004;-85
2021/09/23 11:37:30;;;;;;;;;;;;;;;18.67;66.68;99028.27;112248;1196;60956;-86
2021/09/23 11:40:00;;;;;;;;;;;;;;;18.68;66.71;99024.73;112250;1195;62639;-86
2021/09/23 11:42:36;;;;;;;;;;;;;;;18.70;66.52;99020.99;112255;1196;61054;-86
2021/09/23 11:45:07;;;;;;;;;;;;;;;18.77;66.26;99021.39;112257;1195;61057;-88
2021/09/23 11:47:42;;;;;;;;;;;;;;;18.88;66.37;99016.52;112263;1196;66028;-86
2021/09/23 11:50:10;;;;;;;;;;;;;;;19.00;65.95;99008.95;112293;1196;61125;-86
2021/09/23 11:52:37;;;;;;;;;;;;;;;18.98;65.00;98997.84;112268;1196;63667;-85
2021/09/23 11:55:05;;;;;;;;;;;;;;;18.87;64.93;98989.42;112313;1196;61039;-87
2021/09/23 11:57:31;;;;;;;;;;;;;;;18.78;65.19;98987.66;112291;1195;61081;-89
2021/09/23 12:00:02;;;;;;;;;;;;;;;18.71;65.24;98976.77;112314;1196;60988;-87
2021/09/23 12:02:32;;;;;;;;;;;;;;;18.66;65.38;98972.23;112277;1196;61042;-87
2021/09/23 12:04:59;;;;;;;;;;;;;;;18.61;65.23;98970.91;112379;1195;64021;-86
2021/09/23 12:07:27;;;;;;;;;;;;;;;18.70;65.28;98962.63;112337;1196;61045;-87
2021/09/23 12:10:00;;;;;;;;;;;;;;;18.88;65.46;98958.91;112342;1195;61011;-87
2021/09/23 12:12:27;;;;;;;;;;;;;;;18.94;64.81;98948.88;112239;1196;64710;-88
2021/09/23 12:14:54;;;;;;;;;;;;;;;18.90;64.41;98941.62;111913;1196;61059;-86
2021/09/23 12:17:22;;;;;;;;;;;;;;;18.86;64.65;98939.23;112210;1196;64983;-86
2021/09/23 12:19:53;;;;;;;;;;;;;;;18.80;64.19;98929.42;111949;1196;61058;-86
2021/09/23 12:22:33;;;;;;;;;;;;;;;18.68;63.49;98919.69;112307;1195;60937;-86
2021/09/23 12:24:59;;;;;;;;;;;;;;;18.59;63.52;98923.86;112335;1195;66731;-86
2021/09/23 12:27:27;;;;;;;;;;;;;;;18.54;63.66;98923.02;112259;1196;61062;-87
2021/09/23 12:29:55;;;;;;;;;;;;;;;18.48;64.04;98923.63;112280;1195;63790;-88
2021/09/23 12:32:30;;;;;;;;;;;;;;;18.48;64.44;98922.39;112229;1194;61068;-86
2021/09/23 12:34:57;;;;;;;;;;;;;;;18.49;64.85;98919.04;111957;1195;60991;-85
2021/09/23 12:37:23;;;;;;;;;;;;;;;18.44;65.17;98916.91;112271;1194;66098;-86
2021/09/23 12:39:50;;;;;;;;;;;;;;;18.35;65.13;98917.97;112243;1195;61000;-86
2021/09/23 12:42:20;;;;;;;;;;;;;;;18.29;65.46;98916.25;112232;1195;63998;-87
2021/09/23 12:44:56;;;;;;;;;;;;;;;18.32;65.46;98917.05;112251;1195;61065;-86
2021/09/23 12:47:23;;;;;;;;;;;;;;;18.30;65.72;98913.77;112043;1196;61112;-87